sensor_id;sensor_type;location;lat;lon;timestamp;P1;durP1;ratioP1;P2;durP2;ratioP2
72273;SDS011;60208;48.692;8.948;2023-09-07T00:00:12;7.80;;;5.43;;
72273;SDS011;60208;48.692;8.948;2023-09-07T00:02:39;6.40;;;5.78;;
72273;SDS011;60208;48.692;8.948;2023-09-07T00:05:05;5.15;;;4.65;;
72273;SDS011;60208;48.692;8.948;2023-09-07T00:07:32;6.70;;;5.35;;
72273;SDS011;60208;48.692;8.948;2023-09-07T00:09:57;6.65;;;5.40;;
72273;SDS011;60208;48.692;8.948;2023-09-07T00:12:23;7.53;;;5.80;;
72273;SDS011;60208;48.692;8.948;2023-09-07T00:14:48;7.85;;;5.18;;
72273;SDS011;60208;48.692;8.948;2023-09-07T00:17:13;5.70;;;5.10;;
72273;SDS011;60208;48.692;8.948;2023-09-07T00:19:40;7.53;;;5.88;;
72273;SDS011;60208;48.692;8.948;2023-09-07T00:22:05;6.07;;;5.47;;
72273;SDS011;60208;48.692;8.948;2023-09-07T00:24:31;7.43;;;5.70;;
72273;SDS011;60208;48.692;8.948;2023-09-07T00:26:57;7.65;;;5.93;;
72273;SDS011;60208;48.692;8.948;2023-09-07T00:29:22;7.05;;;5.65;;
72273;SDS011;60208;48.692;8.948;2023-09-07T00:31:48;6.53;;;5.70;;
72273;SDS011;60208;48.692;8.948;2023-09-07T00:34:14;6.45;;;5.22;;
72273;SDS011;60208;48.692;8.948;2023-09-07T00:36:39;5.95;;;5.30;;
72273;SDS011;60208;48.692;8.948;2023-09-07T00:39:04;6.13;;;5.38;;
72273;SDS011;60208;48.692;8.948;2023-09-07T00:41:30;6.65;;;5.20;;
72273;SDS011;60208;48.692;8.948;2023-09-07T00:43:55;6.55;;;5.50;;
72273;SDS011;60208;48.692;8.948;2023-09-07T00:46:21;6.55;;;5.47;;
72273;SDS011;60208;48.692;8.948;2023-09-07T00:48:47;7.85;;;5.65;;
72273;SDS011;60208;48.692;8.948;2023-09-07T00:51:13;6.68;;;5.20;;
72273;SDS011;60208;48.692;8.948;2023-09-07T00:53:38;6.10;;;5.50;;
72273;SDS011;60208;48.692;8.948;2023-09-07T00:56:03;7.82;;;5.75;;
72273;SDS011;60208;48.692;8.948;2023-09-07T00:58:29;6.80;;;5.72;;
72273;SDS011;60208;48.692;8.948;2023-09-07T01:00:54;7.50;;;5.80;;
72273;SDS011;60208;48.692;8.948;2023-09-07T01:03:20;7.65;;;5.53;;
72273;SDS011;60208;48.692;8.948;2023-09-07T01:08:35;8.23;;;5.90;;
72273;SDS011;60208;48.692;8.948;2023-09-07T01:11:06;6.78;;;6.07;;
72273;SDS011;60208;48.692;8.948;2023-09-07T01:13:38;7.40;;;5.82;;
72273;SDS011;60208;48.692;8.948;2023-09-07T01:16:03;6.38;;;5.78;;
72273;SDS011;60208;48.692;8.948;2023-09-07T01:18:29;9.20;;;5.63;;
72273;SDS011;60208;48.692;8.948;2023-09-07T01:20:54;8.30;;;6.00;;
72273;SDS011;60208;48.692;8.948;2023-09-07T01:23:20;7.00;;;5.88;;
72273;SDS011;60208;48.692;8.948;2023-09-07T01:25:46;6.75;;;6.05;;
72273;SDS011;60208;48.692;8.948;2023-09-07T01:28:12;6.70;;;5.95;;
72273;SDS011;60208;48.692;8.948;2023-09-07T01:30:39;7.70;;;6.15;;
72273;SDS011;60208;48.692;8.948;2023-09-07T01:33:05;6.68;;;5.50;;
72273;SDS011;60208;48.692;8.948;2023-09-07T01:35:31;8.32;;;6.32;;
72273;SDS011;60208;48.692;8.948;2023-09-07T01:37:57;7.60;;;6.00;;
72273;SDS011;60208;48.692;8.948;2023-09-07T01:40:22;6.68;;;5.97;;
72273;SDS011;60208;48.692;8.948;2023-09-07T01:42:48;8.10;;;5.82;;
72273;SDS011;60208;48.692;8.948;2023-09-07T01:45:13;11.32;;;6.40;;
72273;SDS011;60208;48.692;8.948;2023-09-07T01:47:39;7.22;;;6.05;;
72273;SDS011;60208;48.692;8.948;2023-09-07T01:50:05;6.70;;;5.93;;
72273;SDS011;60208;48.692;8.948;2023-09-07T01:52:31;7.13;;;5.63;;
72273;SDS011;60208;48.692;8.948;2023-09-07T01:54:56;7.07;;;6.00;;
72273;SDS011;60208;48.692;8.948;2023-09-07T01:57:21;9.43;;;5.82;;
72273;SDS011;60208;48.692;8.948;2023-09-07T01:59:47;7.32;;;6.22;;
72273;SDS011;60208;48.692;8.948;2023-09-07T02:02:13;8.85;;;5.80;;
72273;SDS011;60208;48.692;8.948;2023-09-07T02:04:39;7.07;;;5.78;;
72273;SDS011;60208;48.692;8.948;2023-09-07T02:07:05;6.55;;;5.60;;
72273;SDS011;60208;48.692;8.948;2023-09-07T02:09:31;6.70;;;5.80;;
72273;SDS011;60208;48.692;8.948;2023-09-07T02:11:57;6.22;;;5.63;;
72273;SDS011;60208;48.692;8.948;2023-09-07T02:14:22;6.90;;;5.80;;
72273;SDS011;60208;48.692;8.948;2023-09-07T02:16:48;6.25;;;5.65;;
72273;SDS011;60208;48.692;8.948;2023-09-07T02:19:13;6.53;;;5.80;;
72273;SDS011;60208;48.692;8.948;2023-09-07T02:21:39;7.63;;;5.55;;
72273;SDS011;60208;48.692;8.948;2023-09-07T02:24:04;6.20;;;5.60;;
72273;SDS011;60208;48.692;8.948;2023-09-07T02:26:30;6.22;;;5.68;;
72273;SDS011;60208;48.692;8.948;2023-09-07T02:28:55;6.63;;;5.88;;
72273;SDS011;60208;48.692;8.948;2023-09-07T02:31:21;6.72;;;5.80;;
72273;SDS011;60208;48.692;8.948;2023-09-07T02:33:46;7.57;;;6.03;;
72273;SDS011;60208;48.692;8.948;2023-09-07T02:36:12;7.18;;;6.07;;
72273;SDS011;60208;48.692;8.948;2023-09-07T02:38:37;6.97;;;5.85;;
72273;SDS011;60208;48.692;8.948;2023-09-07T02:41:02;6.38;;;5.78;;
72273;SDS011;60208;48.692;8.948;2023-09-07T02:43:28;6.80;;;6.10;;
72273;SDS011;60208;48.692;8.948;2023-09-07T02:45:53;7.40;;;6.05;;
72273;SDS011;60208;48.692;8.948;2023-09-07T02:48:19;7.10;;;5.95;;
72273;SDS011;60208;48.692;8.948;2023-09-07T02:50:44;7.25;;;6.00;;
72273;SDS011;60208;48.692;8.948;2023-09-07T02:53:13;8.05;;;6.13;;
72273;SDS011;60208;48.692;8.948;2023-09-07T02:55:39;7.20;;;6.20;;
72273;SDS011;60208;48.692;8.948;2023-09-07T02:58:05;7.88;;;6.45;;
72273;SDS011;60208;48.692;8.948;2023-09-07T03:00:30;7.93;;;6.38;;
72273;SDS011;60208;48.692;8.948;2023-09-07T03:02:56;8.45;;;6.00;;
72273;SDS011;60208;48.692;8.948;2023-09-07T03:05:21;7.97;;;6.28;;
72273;SDS011;60208;48.692;8.948;2023-09-07T03:07:47;6.35;;;5.75;;
72273;SDS011;60208;48.692;8.948;2023-09-07T03:10:13;7.47;;;5.68;;
72273;SDS011;60208;48.692;8.948;2023-09-07T03:12:39;7.07;;;6.13;;
72273;SDS011;60208;48.692;8.948;2023-09-07T03:15:04;5.93;;;5.32;;
72273;SDS011;60208;48.692;8.948;2023-09-07T03:17:30;5.95;;;5.35;;
72273;SDS011;60208;48.692;8.948;2023-09-07T03:19:56;6.57;;;5.53;;
72273;SDS011;60208;48.692;8.948;2023-09-07T03:22:24;6.20;;;5.60;;
72273;SDS011;60208;48.692;8.948;2023-09-07T03:24:52;8.43;;;5.90;;
72273;SDS011;60208;48.692;8.948;2023-09-07T03:27:18;6.40;;;5.68;;
72273;SDS011;60208;48.692;8.948;2023-09-07T03:29:46;9.05;;;5.78;;
72273;SDS011;60208;48.692;8.948;2023-09-07T03:32:11;6.43;;;5.82;;
72273;SDS011;60208;48.692;8.948;2023-09-07T03:34:37;9.20;;;6.18;;
72273;SDS011;60208;48.692;8.948;2023-09-07T03:37:03;9.10;;;6.22;;
72273;SDS011;60208;48.692;8.948;2023-09-07T03:39:31;8.95;;;6.32;;
72273;SDS011;60208;48.692;8.948;2023-09-07T03:41:57;7.10;;;5.53;;
72273;SDS011;60208;48.692;8.948;2023-09-07T03:44:22;6.75;;;5.93;;
72273;SDS011;60208;48.692;8.948;2023-09-07T03:46:48;6.57;;;5.88;;
72273;SDS011;60208;48.692;8.948;2023-09-07T03:49:13;6.95;;;6.25;;
72273;SDS011;60208;48.692;8.948;2023-09-07T03:51:38;8.82;;;6.00;;
72273;SDS011;60208;48.692;8.948;2023-09-07T03:54:04;7.38;;;6.63;;
72273;SDS011;60208;48.692;8.948;2023-09-07T03:56:29;7.00;;;6.15;;
72273;SDS011;60208;48.692;8.948;2023-09-07T03:58:55;7.25;;;6.55;;
72273;SDS011;60208;48.692;8.948;2023-09-07T04:01:20;7.53;;;6.72;;
72273;SDS011;60208;48.692;8.948;2023-09-07T04:03:45;8.75;;;6.80;;
72273;SDS011;60208;48.692;8.948;2023-09-07T04:06:11;8.85;;;6.90;;
72273;SDS011;60208;48.692;8.948;2023-09-07T04:08:37;11.30;;;7.28;;
72273;SDS011;60208;48.692;8.948;2023-09-07T04:11:05;7.40;;;6.60;;
72273;SDS011;60208;48.692;8.948;2023-09-07T04:13:31;7.20;;;6.45;;
72273;SDS011;60208;48.692;8.948;2023-09-07T04:15:57;8.70;;;6.53;;
72273;SDS011;60208;48.692;8.948;2023-09-07T04:18:23;9.82;;;6.50;;
72273;SDS011;60208;48.692;8.948;2023-09-07T04:20:48;8.82;;;6.57;;
72273;SDS011;60208;48.692;8.948;2023-09-07T04:23:14;6.72;;;6.10;;
72273;SDS011;60208;48.692;8.948;2023-09-07T04:25:39;7.97;;;6.25;;
72273;SDS011;60208;48.692;8.948;2023-09-07T04:28:08;7.18;;;6.38;;
72273;SDS011;60208;48.692;8.948;2023-09-07T04:30:37;9.45;;;6.53;;
72273;SDS011;60208;48.692;8.948;2023-09-07T04:33:03;7.40;;;6.63;;
72273;SDS011;60208;48.692;8.948;2023-09-07T04:35:29;8.27;;;6.50;;
72273;SDS011;60208;48.692;8.948;2023-09-07T04:37:57;6.80;;;6.20;;
72273;SDS011;60208;48.692;8.948;2023-09-07T04:40:23;7.53;;;6.78;;
72273;SDS011;60208;48.692;8.948;2023-09-07T04:42:49;9.48;;;6.43;;
72273;SDS011;60208;48.692;8.948;2023-09-07T04:45:15;9.55;;;7.43;;
72273;SDS011;60208;48.692;8.948;2023-09-07T04:47:40;8.43;;;7.32;;
72273;SDS011;60208;48.692;8.948;2023-09-07T04:50:06;7.82;;;7.07;;
72273;SDS011;60208;48.692;8.948;2023-09-07T04:52:31;8.70;;;6.45;;
72273;SDS011;60208;48.692;8.948;2023-09-07T04:54:57;7.70;;;6.65;;
72273;SDS011;60208;48.692;8.948;2023-09-07T04:57:22;10.18;;;6.75;;
72273;SDS011;60208;48.692;8.948;2023-09-07T04:59:48;8.55;;;6.97;;
72273;SDS011;60208;48.692;8.948;2023-09-07T05:02:13;12.35;;;6.82;;
72273;SDS011;60208;48.692;8.948;2023-09-07T05:04:39;9.13;;;6.40;;
72273;SDS011;60208;48.692;8.948;2023-09-07T05:07:04;7.05;;;6.32;;
72273;SDS011;60208;48.692;8.948;2023-09-07T05:09:30;7.50;;;6.68;;
72273;SDS011;60208;48.692;8.948;2023-09-07T05:11:56;7.70;;;6.72;;
72273;SDS011;60208;48.692;8.948;2023-09-07T05:14:22;10.48;;;7.88;;
72273;SDS011;60208;48.692;8.948;2023-09-07T05:16:49;8.07;;;6.47;;
72273;SDS011;60208;48.692;8.948;2023-09-07T05:19:14;8.02;;;6.65;;
72273;SDS011;60208;48.692;8.948;2023-09-07T05:21:40;8.90;;;7.25;;
72273;SDS011;60208;48.692;8.948;2023-09-07T05:24:05;7.55;;;6.75;;
72273;SDS011;60208;48.692;8.948;2023-09-07T05:26:31;7.43;;;6.57;;
72273;SDS011;60208;48.692;8.948;2023-09-07T05:28:56;10.52;;;7.43;;
72273;SDS011;60208;48.692;8.948;2023-09-07T05:31:21;7.80;;;6.53;;
72273;SDS011;60208;48.692;8.948;2023-09-07T05:33:47;7.53;;;6.60;;
72273;SDS011;60208;48.692;8.948;2023-09-07T05:36:12;8.00;;;6.22;;
72273;SDS011;60208;48.692;8.948;2023-09-07T05:38:38;7.18;;;6.47;;
72273;SDS011;60208;48.692;8.948;2023-09-07T05:41:03;8.02;;;6.30;;
72273;SDS011;60208;48.692;8.948;2023-09-07T05:43:29;8.85;;;6.72;;
72273;SDS011;60208;48.692;8.948;2023-09-07T05:45:54;9.23;;;6.20;;
72273;SDS011;60208;48.692;8.948;2023-09-07T05:48:19;8.02;;;6.32;;
72273;SDS011;60208;48.692;8.948;2023-09-07T05:50:45;7.28;;;6.07;;
72273;SDS011;60208;48.692;8.948;2023-09-07T05:53:10;8.20;;;6.28;;
72273;SDS011;60208;48.692;8.948;2023-09-07T05:55:36;8.30;;;5.95;;
72273;SDS011;60208;48.692;8.948;2023-09-07T05:58:04;8.18;;;6.32;;
72273;SDS011;60208;48.692;8.948;2023-09-07T06:00:30;9.00;;;5.82;;
72273;SDS011;60208;48.692;8.948;2023-09-07T06:02:56;7.93;;;6.18;;
72273;SDS011;60208;48.692;8.948;2023-09-07T06:05:21;8.38;;;5.97;;
72273;SDS011;60208;48.692;8.948;2023-09-07T06:07:47;17.23;;;6.38;;
72273;SDS011;60208;48.692;8.948;2023-09-07T06:10:12;14.15;;;6.30;;
72273;SDS011;60208;48.692;8.948;2023-09-07T06:12:38;33.17;;;6.75;;
72273;SDS011;60208;48.692;8.948;2023-09-07T06:15:03;26.25;;;5.97;;
72273;SDS011;60208;48.692;8.948;2023-09-07T06:17:29;24.42;;;6.60;;
72273;SDS011;60208;48.692;8.948;2023-09-07T06:19:55;39.40;;;6.40;;
72273;SDS011;60208;48.692;8.948;2023-09-07T06:22:20;22.70;;;6.45;;
72273;SDS011;60208;48.692;8.948;2023-09-07T06:24:46;34.75;;;6.50;;
72273;SDS011;60208;48.692;8.948;2023-09-07T06:27:11;29.33;;;5.72;;
72273;SDS011;60208;48.692;8.948;2023-09-07T06:29:37;16.90;;;5.65;;
72273;SDS011;60208;48.692;8.948;2023-09-07T06:32:02;13.02;;;5.55;;
72273;SDS011;60208;48.692;8.948;2023-09-07T06:34:28;17.08;;;5.85;;
72273;SDS011;60208;48.692;8.948;2023-09-07T06:36:53;18.67;;;6.03;;
72273;SDS011;60208;48.692;8.948;2023-09-07T06:39:19;15.73;;;5.95;;
72273;SDS011;60208;48.692;8.948;2023-09-07T06:41:47;10.60;;;5.20;;
72273;SDS011;60208;48.692;8.948;2023-09-07T06:44:13;10.32;;;5.82;;
72273;SDS011;60208;48.692;8.948;2023-09-07T06:46:39;12.40;;;5.05;;
72273;SDS011;60208;48.692;8.948;2023-09-07T06:49:04;19.55;;;6.05;;
72273;SDS011;60208;48.692;8.948;2023-09-07T06:51:30;15.50;;;6.60;;
72273;SDS011;60208;48.692;8.948;2023-09-07T06:53:56;12.35;;;5.65;;
72273;SDS011;60208;48.692;8.948;2023-09-07T06:56:21;12.35;;;5.25;;
72273;SDS011;60208;48.692;8.948;2023-09-07T06:58:47;9.57;;;5.80;;
72273;SDS011;60208;48.692;8.948;2023-09-07T07:01:12;14.27;;;5.97;;
72273;SDS011;60208;48.692;8.948;2023-09-07T07:03:38;9.05;;;5.53;;
72273;SDS011;60208;48.692;8.948;2023-09-07T07:06:03;10.40;;;5.32;;
72273;SDS011;60208;48.692;8.948;2023-09-07T07:08:29;9.20;;;5.95;;
72273;SDS011;60208;48.692;8.948;2023-09-07T07:10:54;7.28;;;5.80;;
72273;SDS011;60208;48.692;8.948;2023-09-07T07:13:20;11.27;;;5.60;;
72273;SDS011;60208;48.692;8.948;2023-09-07T07:15:45;10.32;;;5.57;;
72273;SDS011;60208;48.692;8.948;2023-09-07T07:18:10;11.10;;;5.93;;
72273;SDS011;60208;48.692;8.948;2023-09-07T07:20:37;9.65;;;5.68;;
72273;SDS011;60208;48.692;8.948;2023-09-07T07:23:05;14.38;;;5.88;;
72273;SDS011;60208;48.692;8.948;2023-09-07T07:25:35;9.25;;;5.55;;
72273;SDS011;60208;48.692;8.948;2023-09-07T07:28:02;7.70;;;5.65;;
72273;SDS011;60208;48.692;8.948;2023-09-07T07:30:33;10.18;;;6.05;;
72273;SDS011;60208;48.692;8.948;2023-09-07T07:32:58;9.23;;;5.90;;
72273;SDS011;60208;48.692;8.948;2023-09-07T07:35:24;8.50;;;6.30;;
72273;SDS011;60208;48.692;8.948;2023-09-07T07:37:50;12.13;;;6.22;;
72273;SDS011;60208;48.692;8.948;2023-09-07T07:40:15;7.20;;;6.47;;
72273;SDS011;60208;48.692;8.948;2023-09-07T07:42:42;7.95;;;5.95;;
72273;SDS011;60208;48.692;8.948;2023-09-07T07:45:08;9.38;;;6.22;;
72273;SDS011;60208;48.692;8.948;2023-09-07T07:47:34;9.70;;;6.25;;
72273;SDS011;60208;48.692;8.948;2023-09-07T07:49:59;8.38;;;5.82;;
72273;SDS011;60208;48.692;8.948;2023-09-07T07:52:25;10.07;;;6.15;;
72273;SDS011;60208;48.692;8.948;2023-09-07T07:54:50;7.00;;;5.80;;
72273;SDS011;60208;48.692;8.948;2023-09-07T07:57:16;6.90;;;5.95;;
72273;SDS011;60208;48.692;8.948;2023-09-07T07:59:41;6.85;;;5.75;;
72273;SDS011;60208;48.692;8.948;2023-09-07T08:02:06;7.72;;;6.07;;
72273;SDS011;60208;48.692;8.948;2023-09-07T08:04:32;7.88;;;6.75;;
72273;SDS011;60208;48.692;8.948;2023-09-07T08:06:59;8.13;;;5.93;;
72273;SDS011;60208;48.692;8.948;2023-09-07T08:09:29;8.20;;;6.10;;
72273;SDS011;60208;48.692;8.948;2023-09-07T08:11:55;6.63;;;5.50;;
72273;SDS011;60208;48.692;8.948;2023-09-07T08:14:21;8.27;;;6.10;;
72273;SDS011;60208;48.692;8.948;2023-09-07T08:16:47;9.13;;;6.10;;
72273;SDS011;60208;48.692;8.948;2023-09-07T08:19:13;6.88;;;5.40;;
72273;SDS011;60208;48.692;8.948;2023-09-07T08:21:39;7.97;;;5.25;;
72273;SDS011;60208;48.692;8.948;2023-09-07T08:24:08;7.68;;;5.38;;
72273;SDS011;60208;48.692;8.948;2023-09-07T08:26:35;7.50;;;5.22;;
72273;SDS011;60208;48.692;8.948;2023-09-07T08:29:01;5.85;;;5.25;;
72273;SDS011;60208;48.692;8.948;2023-09-07T08:31:30;5.97;;;5.38;;
72273;SDS011;60208;48.692;8.948;2023-09-07T08:33:59;6.55;;;5.10;;
72273;SDS011;60208;48.692;8.948;2023-09-07T08:36:25;5.50;;;4.43;;
72273;SDS011;60208;48.692;8.948;2023-09-07T08:38:53;7.00;;;4.70;;
72273;SDS011;60208;48.692;8.948;2023-09-07T08:41:18;7.50;;;4.85;;
72273;SDS011;60208;48.692;8.948;2023-09-07T08:43:45;9.38;;;5.38;;
72273;SDS011;60208;48.692;8.948;2023-09-07T08:46:18;7.40;;;5.05;;
72273;SDS011;60208;48.692;8.948;2023-09-07T08:48:46;5.50;;;4.85;;
72273;SDS011;60208;48.692;8.948;2023-09-07T08:51:11;6.05;;;5.05;;
72273;SDS011;60208;48.692;8.948;2023-09-07T08:53:38;7.93;;;5.32;;
72273;SDS011;60208;48.692;8.948;2023-09-07T08:56:04;6.35;;;5.28;;
72273;SDS011;60208;48.692;8.948;2023-09-07T08:58:35;5.93;;;4.60;;
72273;SDS011;60208;48.692;8.948;2023-09-07T09:01:05;7.30;;;4.80;;
72273;SDS011;60208;48.692;8.948;2023-09-07T09:03:30;5.40;;;4.43;;
72273;SDS011;60208;48.692;8.948;2023-09-07T09:05:56;5.70;;;4.95;;
72273;SDS011;60208;48.692;8.948;2023-09-07T09:08:22;7.38;;;5.13;;
72273;SDS011;60208;48.692;8.948;2023-09-07T09:10:57;6.38;;;4.38;;
72273;SDS011;60208;48.692;8.948;2023-09-07T09:13:32;4.53;;;4.13;;
72273;SDS011;60208;48.692;8.948;2023-09-07T09:16:00;5.20;;;4.20;;
72273;SDS011;60208;48.692;8.948;2023-09-07T09:18:26;5.47;;;4.45;;
72273;SDS011;60208;48.692;8.948;2023-09-07T09:20:52;6.57;;;4.60;;
72273;SDS011;60208;48.692;8.948;2023-09-07T09:23:18;5.72;;;4.65;;
72273;SDS011;60208;48.692;8.948;2023-09-07T09:25:43;6.95;;;4.00;;
72273;SDS011;60208;48.692;8.948;2023-09-07T09:28:09;5.88;;;4.28;;
72273;SDS011;60208;48.692;8.948;2023-09-07T09:30:35;8.52;;;4.97;;
72273;SDS011;60208;48.692;8.948;2023-09-07T09:33:01;4.60;;;4.20;;
72273;SDS011;60208;48.692;8.948;2023-09-07T09:35:27;5.68;;;4.40;;
72273;SDS011;60208;48.692;8.948;2023-09-07T09:37:54;4.57;;;3.78;;
72273;SDS011;60208;48.692;8.948;2023-09-07T09:40:20;7.40;;;4.30;;
72273;SDS011;60208;48.692;8.948;2023-09-07T09:42:45;5.35;;;4.30;;
72273;SDS011;60208;48.692;8.948;2023-09-07T09:45:11;3.90;;;3.50;;
72273;SDS011;60208;48.692;8.948;2023-09-07T09:47:40;4.82;;;4.15;;
72273;SDS011;60208;48.692;8.948;2023-09-07T09:50:07;4.10;;;3.30;;
72273;SDS011;60208;48.692;8.948;2023-09-07T09:52:34;4.18;;;3.60;;
72273;SDS011;60208;48.692;8.948;2023-09-07T09:55:02;4.25;;;3.42;;
72273;SDS011;60208;48.692;8.948;2023-09-07T09:57:33;4.82;;;3.83;;
72273;SDS011;60208;48.692;8.948;2023-09-07T09:59:59;3.78;;;3.45;;
72273;SDS011;60208;48.692;8.948;2023-09-07T10:02:31;4.68;;;3.70;;
72273;SDS011;60208;48.692;8.948;2023-09-07T10:04:59;4.07;;;3.47;;
72273;SDS011;60208;48.692;8.948;2023-09-07T10:10:13;4.07;;;3.67;;
72273;SDS011;60208;48.692;8.948;2023-09-07T10:12:43;3.90;;;3.50;;
72273;SDS011;60208;48.692;8.948;2023-09-07T10:15:22;5.20;;;3.30;;
72273;SDS011;60208;48.692;8.948;2023-09-07T10:17:48;3.92;;;3.20;;
72273;SDS011;60208;48.692;8.948;2023-09-07T10:20:15;3.33;;;2.72;;
72273;SDS011;60208;48.692;8.948;2023-09-07T10:22:47;3.30;;;3.00;;
72273;SDS011;60208;48.692;8.948;2023-09-07T10:25:19;4.82;;;3.13;;
72273;SDS011;60208;48.692;8.948;2023-09-07T10:27:45;3.13;;;2.70;;
72273;SDS011;60208;48.692;8.948;2023-09-07T10:30:12;3.28;;;2.97;;
72273;SDS011;60208;48.692;8.948;2023-09-07T10:32:38;4.28;;;2.60;;
72273;SDS011;60208;48.692;8.948;2023-09-07T10:35:12;6.13;;;3.00;;
72273;SDS011;60208;48.692;8.948;2023-09-07T10:37:42;2.70;;;2.50;;
72273;SDS011;60208;48.692;8.948;2023-09-07T10:40:12;5.13;;;2.75;;
72273;SDS011;60208;48.692;8.948;2023-09-07T10:42:39;2.83;;;2.45;;
72273;SDS011;60208;48.692;8.948;2023-09-07T10:45:08;3.25;;;2.20;;
72273;SDS011;60208;48.692;8.948;2023-09-07T10:47:40;2.65;;;2.45;;
72273;SDS011;60208;48.692;8.948;2023-09-07T10:50:07;2.95;;;2.60;;
72273;SDS011;60208;48.692;8.948;2023-09-07T10:52:34;2.50;;;2.30;;
72273;SDS011;60208;48.692;8.948;2023-09-07T10:54:59;4.57;;;2.70;;
72273;SDS011;60208;48.692;8.948;2023-09-07T10:57:24;2.60;;;2.40;;
72273;SDS011;60208;48.692;8.948;2023-09-07T10:59:50;2.60;;;2.38;;
72273;SDS011;60208;48.692;8.948;2023-09-07T11:02:19;2.70;;;2.50;;
72273;SDS011;60208;48.692;8.948;2023-09-07T11:04:45;4.10;;;2.60;;
72273;SDS011;60208;48.692;8.948;2023-09-07T11:07:10;4.97;;;2.47;;
72273;SDS011;60208;48.692;8.948;2023-09-07T11:09:40;4.85;;;2.65;;
72273;SDS011;60208;48.692;8.948;2023-09-07T11:12:08;3.42;;;2.78;;
72273;SDS011;60208;48.692;8.948;2023-09-07T11:14:38;3.30;;;2.30;;
72273;SDS011;60208;48.692;8.948;2023-09-07T11:17:04;2.33;;;2.13;;
72273;SDS011;60208;48.692;8.948;2023-09-07T11:19:33;2.75;;;2.10;;
72273;SDS011;60208;48.692;8.948;2023-09-07T11:21:59;2.15;;;2.03;;
72273;SDS011;60208;48.692;8.948;2023-09-07T11:24:24;2.50;;;2.22;;
72273;SDS011;60208;48.692;8.948;2023-09-07T11:26:51;3.83;;;2.42;;
72273;SDS011;60208;48.692;8.948;2023-09-07T11:29:16;2.63;;;2.05;;
72273;SDS011;60208;48.692;8.948;2023-09-07T11:31:46;2.78;;;2.30;;
72273;SDS011;60208;48.692;8.948;2023-09-07T11:34:12;2.78;;;2.25;;
72273;SDS011;60208;48.692;8.948;2023-09-07T11:36:39;3.28;;;2.17;;
72273;SDS011;60208;48.692;8.948;2023-09-07T11:39:05;3.58;;;2.20;;
72273;SDS011;60208;48.692;8.948;2023-09-07T11:44:02;5.45;;;2.50;;
72273;SDS011;60208;48.692;8.948;2023-09-07T11:46:28;4.22;;;2.20;;
72273;SDS011;60208;48.692;8.948;2023-09-07T11:48:53;3.87;;;2.40;;
72273;SDS011;60208;48.692;8.948;2023-09-07T11:51:19;2.40;;;2.20;;
72273;SDS011;60208;48.692;8.948;2023-09-07T11:53:46;4.35;;;2.20;;
72273;SDS011;60208;48.692;8.948;2023-09-07T11:56:12;2.40;;;1.87;;
72273;SDS011;60208;48.692;8.948;2023-09-07T11:58:37;2.80;;;2.10;;
72273;SDS011;60208;48.692;8.948;2023-09-07T12:01:02;2.30;;;2.00;;
72273;SDS011;60208;48.692;8.948;2023-09-07T12:03:29;2.25;;;2.10;;
72273;SDS011;60208;48.692;8.948;2023-09-07T12:05:55;2.88;;;2.03;;
72273;SDS011;60208;48.692;8.948;2023-09-07T12:08:20;5.32;;;2.85;;
72273;SDS011;60208;48.692;8.948;2023-09-07T12:10:46;2.60;;;1.80;;
72273;SDS011;60208;48.692;8.948;2023-09-07T12:13:11;3.95;;;1.90;;
72273;SDS011;60208;48.692;8.948;2023-09-07T12:15:37;5.80;;;2.57;;
72273;SDS011;60208;48.692;8.948;2023-09-07T12:18:03;5.05;;;2.35;;
72273;SDS011;60208;48.692;8.948;2023-09-07T12:20:29;3.33;;;2.40;;
72273;SDS011;60208;48.692;8.948;2023-09-07T12:22:55;3.60;;;2.30;;
72273;SDS011;60208;48.692;8.948;2023-09-07T12:25:20;2.83;;;2.05;;
72273;SDS011;60208;48.692;8.948;2023-09-07T12:27:46;2.00;;;1.90;;
72273;SDS011;60208;48.692;8.948;2023-09-07T12:30:12;2.28;;;2.08;;
72273;SDS011;60208;48.692;8.948;2023-09-07T12:32:41;2.47;;;2.28;;
72273;SDS011;60208;48.692;8.948;2023-09-07T12:35:06;2.03;;;1.83;;
72273;SDS011;60208;48.692;8.948;2023-09-07T12:37:34;3.25;;;2.05;;
72273;SDS011;60208;48.692;8.948;2023-09-07T12:40:01;3.85;;;1.85;;
72273;SDS011;60208;48.692;8.948;2023-09-07T12:42:27;2.60;;;2.10;;
72273;SDS011;60208;48.692;8.948;2023-09-07T12:44:52;3.73;;;2.17;;
72273;SDS011;60208;48.692;8.948;2023-09-07T12:47:18;3.07;;;1.87;;
72273;SDS011;60208;48.692;8.948;2023-09-07T12:49:43;2.58;;;1.75;;
72273;SDS011;60208;48.692;8.948;2023-09-07T12:52:09;2.37;;;2.10;;
72273;SDS011;60208;48.692;8.948;2023-09-07T12:54:35;2.65;;;1.90;;
72273;SDS011;60208;48.692;8.948;2023-09-07T12:57:02;1.90;;;1.70;;
72273;SDS011;60208;48.692;8.948;2023-09-07T12:59:28;3.55;;;2.00;;
72273;SDS011;60208;48.692;8.948;2023-09-07T13:01:54;3.10;;;1.90;;
72273;SDS011;60208;48.692;8.948;2023-09-07T13:04:21;3.03;;;1.90;;
72273;SDS011;60208;48.692;8.948;2023-09-07T13:06:46;2.03;;;1.75;;
72273;SDS011;60208;48.692;8.948;2023-09-07T13:09:12;2.22;;;1.98;;
72273;SDS011;60208;48.692;8.948;2023-09-07T13:11:38;2.97;;;2.30;;
72273;SDS011;60208;48.692;8.948;2023-09-07T13:14:04;2.28;;;1.83;;
72273;SDS011;60208;48.692;8.948;2023-09-07T13:16:29;1.92;;;1.77;;
72273;SDS011;60208;48.692;8.948;2023-09-07T13:18:57;1.92;;;1.83;;
72273;SDS011;60208;48.692;8.948;2023-09-07T13:21:23;1.98;;;1.88;;
72273;SDS011;60208;48.692;8.948;2023-09-07T13:23:49;3.05;;;1.95;;
72273;SDS011;60208;48.692;8.948;2023-09-07T13:26:14;2.60;;;1.90;;
72273;SDS011;60208;48.692;8.948;2023-09-07T13:28:40;2.03;;;1.80;;
72273;SDS011;60208;48.692;8.948;2023-09-07T13:31:06;2.80;;;2.10;;
72273;SDS011;60208;48.692;8.948;2023-09-07T13:33:31;2.60;;;1.90;;
72273;SDS011;60208;48.692;8.948;2023-09-07T13:35:57;2.13;;;1.77;;
72273;SDS011;60208;48.692;8.948;2023-09-07T13:38:22;2.63;;;1.70;;
72273;SDS011;60208;48.692;8.948;2023-09-07T13:40:48;2.10;;;2.00;;
72273;SDS011;60208;48.692;8.948;2023-09-07T13:43:14;2.17;;;1.80;;
72273;SDS011;60208;48.692;8.948;2023-09-07T13:45:39;1.92;;;1.80;;
72273;SDS011;60208;48.692;8.948;2023-09-07T13:48:05;5.00;;;1.97;;
72273;SDS011;60208;48.692;8.948;2023-09-07T13:50:31;6.20;;;4.13;;
72273;SDS011;60208;48.692;8.948;2023-09-07T13:52:56;10.17;;;6.63;;
72273;SDS011;60208;48.692;8.948;2023-09-07T13:55:21;3.40;;;2.50;;
72273;SDS011;60208;48.692;8.948;2023-09-07T13:57:48;6.28;;;4.20;;
72273;SDS011;60208;48.692;8.948;2023-09-07T14:00:14;22.58;;;14.20;;
72273;SDS011;60208;48.692;8.948;2023-09-07T14:02:39;7.85;;;6.05;;
72273;SDS011;60208;48.692;8.948;2023-09-07T14:05:05;3.03;;;2.47;;
72273;SDS011;60208;48.692;8.948;2023-09-07T14:07:30;3.50;;;3.20;;
72273;SDS011;60208;48.692;8.948;2023-09-07T14:09:56;2.37;;;2.17;;
72273;SDS011;60208;48.692;8.948;2023-09-07T14:12:21;5.38;;;2.30;;
72273;SDS011;60208;48.692;8.948;2023-09-07T14:14:47;3.58;;;3.28;;
72273;SDS011;60208;48.692;8.948;2023-09-07T14:17:13;4.55;;;4.13;;
72273;SDS011;60208;48.692;8.948;2023-09-07T14:19:38;3.15;;;2.60;;
72273;SDS011;60208;48.692;8.948;2023-09-07T14:22:04;5.43;;;4.77;;
72273;SDS011;60208;48.692;8.948;2023-09-07T14:24:29;13.57;;;12.17;;
72273;SDS011;60208;48.692;8.948;2023-09-07T14:26:54;4.73;;;2.93;;
72273;SDS011;60208;48.692;8.948;2023-09-07T14:29:20;2.15;;;2.00;;
72273;SDS011;60208;48.692;8.948;2023-09-07T14:31:45;2.85;;;2.20;;
72273;SDS011;60208;48.692;8.948;2023-09-07T14:34:11;5.68;;;2.85;;
72273;SDS011;60208;48.692;8.948;2023-09-07T14:36:37;2.88;;;2.45;;
72273;SDS011;60208;48.692;8.948;2023-09-07T14:39:05;3.33;;;2.13;;
72273;SDS011;60208;48.692;8.948;2023-09-07T14:41:32;4.40;;;1.88;;
72273;SDS011;60208;48.692;8.948;2023-09-07T14:43:59;2.78;;;1.90;;
72273;SDS011;60208;48.692;8.948;2023-09-07T14:46:24;2.35;;;2.15;;